Time;durP1;ratioP1;P1;durP2;ratioP2;P2;SDS_P1;SDS_P2;PMS_P1;PMS_P2;Temp;Humidity;BMP_temperature;BMP_pressure;BME280_temperature;BME280_humidity;BME280_pressure;Samples;Min_cycle;Max_cycle;Signal;HPM_P1;HPM_P2
2023/04/04 00:01:16;;;;;;;12.93;8.43;;;;;;;3.76;100.00;101326.72;5021566;28;20029;-77
2023/04/04 00:03:42;;;;;;;10.55;7.78;;;;;;;3.77;100.00;101325.66;5025366;28;20044;-77
2023/04/04 00:06:07;;;;;;;11.70;7.60;;;;;;;3.74;100.00;101326.13;5017834;28;20026;-77
2023/04/04 00:08:33;;;;;;;15.35;8.10;;;;;;;3.69;100.00;101329.56;5014312;28;20125;-77
2023/04/04 00:11:01;;;;;;;11.48;6.88;;;;;;;3.69;100.00;101328.72;5049560;28;20029;-77
2023/04/04 00:13:27;;;;;;;12.48;7.28;;;;;;;3.67;100.00;101328.94;5014204;28;20057;-77
2023/04/04 00:15:53;;;;;;;10.23;6.78;;;;;;;3.64;100.00;101329.41;5027569;28;20470;-77
2023/04/04 00:18:18;;;;;;;12.23;7.05;;;;;;;3.64;100.00;101334.06;5043533;28;20529;-77
2023/04/04 00:20:44;;;;;;;10.20;6.97;;;;;;;3.57;100.00;101340.47;5000362;28;20079;-77
2023/04/04 00:23:10;;;;;;;10.45;6.90;;;;;;;3.55;100.00;101330.78;5051249;28;20083;-77
2023/04/04 00:25:36;;;;;;;11.80;7.28;;;;;;;3.57;100.00;101331.38;5021029;28;20524;-77
2023/04/04 00:28:02;;;;;;;10.80;6.95;;;;;;;3.50;100.00;101327.84;5033864;28;20065;-77
2023/04/04 00:30:28;;;;;;;11.55;7.00;;;;;;;3.48;100.00;101322.63;5001232;28;20037;-77
2023/04/04 00:32:54;;;;;;;10.23;7.28;;;;;;;3.43;100.00;101327.09;5032263;28;20057;-77
2023/04/04 00:35:19;;;;;;;13.05;6.75;;;;;;;3.41;100.00;101326.47;5048465;28;20089;-77
2023/04/04 00:37:45;;;;;;;9.65;6.63;;;;;;;3.39;100.00;101325.88;5041072;28;20478;-77
2023/04/04 00:40:11;;;;;;;13.57;7.00;;;;;;;3.38;100.00;101337.91;5017255;28;20501;-77
2023/04/04 00:42:37;;;;;;;11.35;6.43;;;;;;;3.39;100.00;101337.69;5017078;28;20036;-77
2023/04/04 00:45:04;;;;;;;9.68;6.72;;;;;;;3.34;100.00;101330.16;5001036;28;20033;-77
2023/04/04 00:47:30;;;;;;;11.25;6.20;;;;;;;3.39;100.00;101328.59;5018192;28;20034;-77
2023/04/04 00:49:55;;;;;;;10.05;6.70;;;;;;;3.33;100.00;101333.09;5037539;28;20045;-78
2023/04/04 00:52:21;;;;;;;11.63;6.10;;;;;;;3.31;100.00;101327.81;5036246;28;20112;-77
2023/04/04 00:54:46;;;;;;;11.13;6.20;;;;;;;3.30;100.00;101331.66;5017545;28;20083;-77
2023/04/04 00:57:12;;;;;;;10.05;6.20;;;;;;;3.30;100.00;101333.56;5028686;28;20033;-77
2023/04/04 00:59:38;;;;;;;9.32;6.18;;;;;;;3.31;100.00;101330.56;4988379;28;20044;-77
2023/04/04 01:02:03;;;;;;;10.68;6.72;;;;;;;3.22;100.00;101331.09;5020784;28;20497;-77
2023/04/04 01:04:29;;;;;;;9.88;6.70;;;;;;;3.19;100.00;101332.38;5024148;28;20041;-77
2023/04/04 01:06:55;;;;;;;9.98;6.35;;;;;;;3.21;100.00;101334.91;5001274;28;20034;-77
2023/04/04 01:09:20;;;;;;;12.73;7.05;;;;;;;3.22;100.00;101340.16;5004298;28;20025;-77
2023/04/04 01:11:46;;;;;;;10.57;5.97;;;;;;;3.21;100.00;101332.16;5050443;28;20076;-77
2023/04/04 01:14:11;;;;;;;10.02;6.20;;;;;;;3.17;100.00;101329.00;5025563;28;20705;-77
2023/04/04 01:16:37;;;;;;;10.85;6.20;;;;;;;3.22;100.00;101323.69;5022112;28;20478;-77
2023/04/04 01:19:03;;;;;;;10.13;6.05;;;;;;;3.21;100.00;101335.75;5021254;28;20033;-77
2023/04/04 01:21:28;;;;;;;10.55;6.93;;;;;;;3.09;100.00;101326.56;5016245;28;20031;-77
2023/04/04 01:24:02;;;;;;;9.95;6.53;;;;;;;3.11;100.00;101330.75;5020353;28;20087;-77
2023/04/04 01:26:27;;;;;;;10.57;6.63;;;;;;;3.09;100.00;101332.03;4987836;28;20545;-77
2023/04/04 01:28:54;;;;;;;8.77;5.80;;;;;;;3.07;100.00;101328.69;5016926;28;20056;-77
2023/04/04 01:31:40;;;;;;;10.65;6.63;;;;;;;3.08;100.00;101331.22;5018229;28;20120;-77
2023/04/04 01:34:25;;;;;;;10.35;6.32;;;;;;;3.06;100.00;101327.00;5005314;28;20550;-77
2023/04/04 01:36:57;;;;;;;10.20;6.70;;;;;;;3.06;100.00;101337.97;5050946;28;20452;-77
2023/04/04 01:39:35;;;;;;;10.82;5.82;;;;;;;2.99;100.00;101327.06;5024346;28;20120;-77
2023/04/04 01:42:01;;;;;;;12.68;7.32;;;;;;;2.97;100.00;101320.97;5017186;28;20602;-78
2023/04/04 01:44:27;;;;;;;9.98;6.57;;;;;;;2.93;100.00;101324.41;5010562;28;20544;-77
2023/04/04 01:46:54;;;;;;;10.43;6.95;;;;;;;2.91;100.00;101325.44;5029579;28;20026;-77
2023/04/04 01:49:20;;;;;;;10.68;6.18;;;;;;;2.90;100.00;101323.78;5016873;28;20125;-77
2023/04/04 01:51:45;;;;;;;8.57;6.38;;;;;;;2.91;100.00;101324.59;5017024;28;20030;-77
2023/04/04 01:54:11;;;;;;;8.07;6.10;;;;;;;2.86;100.00;101332.66;5047063;28;20048;-77
2023/04/04 01:56:36;;;;;;;9.05;6.10;;;;;;;2.85;100.00;101329.06;5019355;28;20080;-76
2023/04/04 01:59:02;;;;;;;11.45;6.45;;;;;;;2.80;100.00;101325.31;5019663;28;20091;-77
2023/04/04 02:01:27;;;;;;;11.57;6.95;;;;;;;2.78;100.00;101324.69;5000674;28;20643;-77
2023/04/04 02:03:53;;;;;;;10.40;6.13;;;;;;;2.77;100.00;101325.78;5033469;28;20037;-77
2023/04/04 02:06:18;;;;;;;11.57;6.22;;;;;;;2.73;100.00;101317.16;5004888;28;20685;-77
2023/04/04 02:08:44;;;;;;;10.20;5.95;;;;;;;2.75;100.00;101314.19;5000816;28;20096;-77
2023/04/04 02:11:09;;;;;;;9.05;5.78;;;;;;;2.75;100.00;101317.75;5036045;28;20029;-77
2023/04/04 02:13:40;;;;;;;9.90;5.60;;;;;;;2.72;100.00;101312.72;5033924;28;20029;-78
2023/04/04 02:16:05;;;;;;;9.68;6.00;;;;;;;2.66;100.00;101311.69;5036192;28;20105;-77
2023/04/04 02:18:32;;;;;;;13.50;7.68;;;;;;;2.66;100.00;101313.59;5001717;28;20049;-77
2023/04/04 02:20:57;;;;;;;10.90;6.30;;;;;;;2.62;100.00;101320.63;5032690;28;20025;-77
2023/04/04 02:23:23;;;;;;;8.80;6.15;;;;;;;2.60;100.00;101317.25;5034217;28;20594;-77
2023/04/04 02:25:51;;;;;;;10.88;6.40;;;;;;;2.61;100.00;101314.25;4999442;28;20474;-77
2023/04/04 02:28:17;;;;;;;8.90;5.80;;;;;;;2.58;100.00;101313.88;5018650;28;20034;-77
2023/04/04 02:30:43;;;;;;;9.23;6.47;;;;;;;2.57;100.00;101312.22;5036791;28;20076;-77
2023/04/04 02:33:08;;;;;;;13.32;6.95;;;;;;;2.52;100.00;101312.03;5005643;28;20033;-77
2023/04/04 02:35:34;;;;;;;12.80;6.35;;;;;;;2.54;100.00;101307.16;5034343;28;20029;-77
2023/04/04 02:37:59;;;;;;;10.55;6.28;;;;;;;2.47;100.00;101308.03;5018823;28;20032;-79
2023/04/04 02:40:25;;;;;;;9.93;7.10;;;;;;;2.43;100.00;101301.31;5035374;28;20605;-77
2023/04/04 02:42:50;;;;;;;13.50;7.28;;;;;;;2.39;100.00;101310.19;5002685;28;20037;-77
2023/04/04 02:45:16;;;;;;;9.98;6.88;;;;;;;2.39;100.00;101302.81;5034864;28;20033;-76
2023/04/04 02:47:41;;;;;;;10.57;7.15;;;;;;;2.38;100.00;101300.31;5018718;28;20419;-77
2023/04/04 02:50:08;;;;;;;10.15;6.88;;;;;;;2.40;100.00;101301.75;5015635;28;20022;-78
2023/04/04 02:52:34;;;;;;;11.95;6.80;;;;;;;2.41;100.00;101306.19;5012766;28;20022;-77
2023/04/04 02:54:59;;;;;;;10.05;6.45;;;;;;;2.37;100.00;101307.69;5035548;28;20038;-78
2023/04/04 02:57:24;;;;;;;10.20;6.95;;;;;;;2.35;100.00;101315.28;5002306;28;20041;-77
2023/04/04 02:59:50;;;;;;;11.45;6.70;;;;;;;2.34;100.00;101308.13;5032024;28;20041;-77
2023/04/04 03:02:16;;;;;;;9.98;6.35;;;;;;;2.33;100.00;101306.44;5010359;28;20033;-77
2023/04/04 03:04:41;;;;;;;10.05;6.18;;;;;;;2.37;100.00;101309.59;5018656;28;20045;-77
2023/04/04 03:07:07;;;;;;;10.65;6.40;;;;;;;2.37;100.00;101315.91;5018726;28;20386;-78
2023/04/04 03:09:32;;;;;;;14.02;6.22;;;;;;;2.36;100.00;101311.47;5035050;28;20037;-77
2023/04/04 03:11:59;;;;;;;10.23;6.18;;;;;;;2.30;100.00;101306.88;5018609;28;20104;-77
2023/04/04 03:14:25;;;;;;;11.05;6.22;;;;;;;2.36;100.00;101306.00;4998312;28;20033;-77
2023/04/04 03:16:52;;;;;;;11.35;6.20;;;;;;;2.32;100.00;101307.50;5034300;28;20022;-77
2023/04/04 03:19:18;;;;;;;9.52;5.72;;;;;;;2.28;100.00;101306.25;5035665;28;20045;-77
2023/04/04 03:21:43;;;;;;;10.52;6.63;;;;;;;2.18;100.00;101305.91;5041947;28;20025;-77
2023/04/04 03:24:09;;;;;;;10.07;6.07;;;;;;;2.23;100.00;101297.88;5051255;28;20041;-77
2023/04/04 03:26:34;;;;;;;9.95;6.30;;;;;;;2.14;100.00;101307.38;5018157;28;20501;-77
2023/04/04 03:29:03;;;;;;;10.23;6.72;;;;;;;2.18;100.00;101314.97;5050960;28;20034;-77
2023/04/04 03:31:28;;;;;;;9.75;6.28;;;;;;;2.18;100.00;101311.38;5005866;28;20040;-77
2023/04/04 03:33:54;;;;;;;10.93;6.20;;;;;;;2.17;100.00;101312.44;5021224;28;20025;-77
2023/04/04 03:36:20;;;;;;;12.20;7.10;;;;;;;2.12;100.00;101309.53;5001412;28;20026;-77
2023/04/04 03:38:45;;;;;;;10.45;6.75;;;;;;;2.08;100.00;101311.84;4997661;28;20032;-77
2023/04/04 03:41:11;;;;;;;11.13;6.55;;;;;;;2.07;100.00;101309.34;5017803;28;20021;-77
2023/04/04 03:43:36;;;;;;;9.93;6.93;;;;;;;2.04;100.00;101318.00;5005175;28;20398;-77
2023/04/04 03:46:03;;;;;;;9.00;5.97;;;;;;;2.04;100.00;101312.50;5004067;28;20044;-77
2023/04/04 03:48:29;;;;;;;9.55;6.22;;;;;;;2.03;100.00;101317.13;5018552;28;20508;-77
2023/04/04 03:50:56;;;;;;;9.70;6.70;;;;;;;1.96;100.00;101317.16;5025227;28;20025;-77
2023/04/04 03:53:25;;;;;;;9.57;6.88;;;;;;;1.93;100.00;101316.78;5018263;28;20430;-77
2023/04/04 03:55:52;;;;;;;9.68;5.85;;;;;;;1.88;100.00;101324.78;5015898;28;20054;-77
2023/04/04 03:58:18;;;;;;;7.88;5.70;;;;;;;1.88;100.00;101319.31;5025297;28;20151;-77
2023/04/04 04:00:43;;;;;;;10.18;6.00;;;;;;;1.92;100.00;101331.50;5031803;28;20113;-77
2023/04/04 04:03:09;;;;;;;10.68;6.38;;;;;;;1.81;100.00;101324.81;5034296;28;20036;-77
2023/04/04 04:05:34;;;;;;;9.40;6.20;;;;;;;1.79;100.00;101324.19;5001356;28;20021;-77
2023/04/04 04:08:00;;;;;;;10.48;6.20;;;;;;;1.75;100.00;101328.41;5035879;28;20025;-77
2023/04/04 04:10:25;;;;;;;10.40;6.28;;;;;;;1.74;100.00;101335.78;5003712;28;20501;-77
2023/04/04 04:12:51;;;;;;;11.32;6.07;;;;;;;1.70;100.00;101330.94;5029954;28;20050;-76
2023/04/04 04:15:17;;;;;;;12.13;6.72;;;;;;;1.68;100.00;101330.34;5044370;28;20103;-77
2023/04/04 04:17:42;;;;;;;9.98;6.10;;;;;;;1.66;100.00;101327.81;5016710;28;20025;-77
2023/04/04 04:20:08;;;;;;;11.73;6.72;;;;;;;1.61;100.00;101327.59;4999763;28;20045;-77
2023/04/04 04:22:34;;;;;;;12.57;6.97;;;;;;;1.62;100.00;101323.84;4997700;28;20483;-77
2023/04/04 04:25:00;;;;;;;11.98;6.20;;;;;;;1.58;100.00;101327.22;5031903;28;20058;-77
2023/04/04 04:27:25;;;;;;;10.98;7.13;;;;;;;1.59;100.00;101326.13;5015818;28;20033;-77
2023/04/04 04:29:51;;;;;;;11.38;6.75;;;;;;;1.52;100.00;101326.16;5015141;28;20121;-77
2023/04/04 04:32:17;;;;;;;9.48;6.72;;;;;;;1.53;100.00;101328.72;5027807;28;20029;-77
2023/04/04 04:34:43;;;;;;;10.95;6.93;;;;;;;1.48;100.00;101335.88;5046638;28;20080;-77
2023/04/04 04:37:08;;;;;;;12.23;7.15;;;;;;;1.46;100.00;101333.34;5017061;28;20026;-77
2023/04/04 04:39:35;;;;;;;10.48;7.10;;;;;;;1.46;100.00;101329.78;5034875;28;20033;-78
2023/04/04 04:42:01;;;;;;;12.27;6.57;;;;;;;1.40;100.00;101331.47;5043510;28;20029;-77
2023/04/04 04:44:26;;;;;;;9.85;6.65;;;;;;;1.37;100.00;101333.78;5012827;28;20030;-77
2023/04/04 04:46:52;;;;;;;10.90;6.03;;;;;;;1.41;100.00;101335.03;4996949;28;20040;-77
2023/04/04 04:49:17;;;;;;;9.35;6.53;;;;;;;1.37;100.00;101328.31;5042910;28;20152;-77
2023/04/04 04:51:43;;;;;;;11.45;6.90;;;;;;;1.32;100.00;101331.69;4984207;28;20398;-77
2023/04/04 04:54:09;;;;;;;10.40;6.57;;;;;;;1.35;100.00;101342.22;5029506;28;20495;-77
2023/04/04 04:56:35;;;;;;;12.52;7.10;;;;;;;1.34;100.00;101340.53;5033396;28;20390;-77
2023/04/04 04:59:01;;;;;;;10.10;7.05;;;;;;;1.32;100.00;101339.91;5017701;28;20091;-77
2023/04/04 05:01:26;;;;;;;11.65;6.85;;;;;;;1.27;100.00;101347.91;5033939;28;20113;-77
2023/04/04 05:03:52;;;;;;;12.45;6.95;;;;;;;1.24;100.00;101340.94;5000254;28;20045;-78
2023/04/04 05:06:17;;;;;;;11.10;7.07;;;;;;;1.23;100.00;101346.66;5016262;28;20033;-77
2023/04/04 05:08:43;;;;;;;11.35;6.60;;;;;;;1.23;100.00;101341.19;4996781;28;20026;-77
2023/04/04 05:11:08;;;;;;;11.10;7.07;;;;;;;1.18;100.00;101349.19;5032599;28;20103;-77
2023/04/04 05:13:34;;;;;;;11.35;7.00;;;;;;;1.20;100.00;101352.53;5033190;28;20021;-77
2023/04/04 05:15:59;;;;;;;11.93;7.18;;;;;;;1.16;100.00;101348.53;5034417;28;20087;-77
2023/04/04 05:18:26;;;;;;;12.80;7.25;;;;;;;1.13;100.00;101355.28;5000577;28;20056;-77
2023/04/04 05:20:54;;;;;;;9.45;6.60;;;;;;;1.11;100.00;101355.50;5049735;28;20386;-77
2023/04/04 05:23:20;;;;;;;10.75;6.85;;;;;;;1.09;100.00;101360.34;5021386;28;20034;-77
2023/04/04 05:25:49;;;;;;;12.15;7.35;;;;;;;1.06;100.00;101362.66;5018544;28;20532;-77
2023/04/04 05:28:15;;;;;;;13.27;6.90;;;;;;;1.07;100.00;101367.91;4982277;28;20105;-77
2023/04/04 05:30:40;;;;;;;14.68;7.18;;;;;;;1.00;100.00;101374.41;4998323;28;20542;-77
2023/04/04 05:33:06;;;;;;;16.63;8.50;;;;;;;0.99;100.00;101372.75;5035268;28;20037;-77
2023/04/04 05:35:31;;;;;;;20.95;12.32;;;;;;;0.99;100.00;101376.31;5034907;28;20032;-77
2023/04/04 05:37:57;;;;;;;19.40;12.38;;;;;;;0.95;100.00;101369.59;5017101;28;20025;-78
2023/04/04 05:40:22;;;;;;;22.63;12.75;;;;;;;0.91;100.00;101370.22;5019272;28;20029;-77
2023/04/04 05:42:58;;;;;;;23.88;13.48;;;;;;;0.91;100.00;101379.25;5015933;28;20053;-77
2023/04/04 05:45:24;;;;;;;21.52;11.95;;;;;;;0.89;100.00;101376.75;5052454;28;20060;-77
2023/04/04 05:47:49;;;;;;;18.55;11.45;;;;;;;0.92;100.00;101383.69;5022712;28;20486;-77
2023/04/04 05:50:15;;;;;;;18.98;11.43;;;;;;;0.88;100.00;101388.72;5021874;28;20697;-77
2023/04/04 05:52:40;;;;;;;17.95;11.13;;;;;;;0.91;100.00;101392.94;5052163;28;20032;-77
2023/04/04 05:55:06;;;;;;;18.52;10.38;;;;;;;0.88;100.00;101396.09;5019339;28;20025;-77
2023/04/04 05:57:32;;;;;;;16.83;11.05;;;;;;;0.84;100.00;101390.19;5027223;28;20053;-77
2023/04/04 05:59:58;;;;;;;20.67;10.48;;;;;;;0.84;100.00;101394.81;5035854;28;20079;-77
2023/04/04 06:02:23;;;;;;;17.55;10.75;;;;;;;0.89;100.00;101404.09;5019249;28;20029;-77
2023/04/04 06:04:49;;;;;;;18.23;10.43;;;;;;;0.94;100.00;101406.19;5052093;28;20021;-77
2023/04/04 06:07:15;;;;;;;17.42;9.57;;;;;;;0.96;100.00;101406.00;4986737;28;20037;-77
2023/04/04 06:09:41;;;;;;;14.40;9.60;;;;;;;0.99;100.00;101411.88;5019271;28;20033;-77
2023/04/04 06:12:08;;;;;;;18.10;10.07;;;;;;;1.06;100.00;101414.63;5036825;28;20449;-77
2023/04/04 06:14:35;;;;;;;18.15;9.30;;;;;;;1.11;100.00;101423.91;4986957;28;20034;-77
2023/04/04 06:17:00;;;;;;;16.63;9.95;;;;;;;1.18;100.00;101423.88;5031598;28;20033;-77
2023/04/04 06:19:26;;;;;;;20.52;9.35;;;;;;;1.26;100.00;101433.78;5016231;28;20026;-78
2023/04/04 06:21:51;;;;;;;14.05;8.88;;;;;;;1.34;100.00;101428.13;5048561;28;20112;-77
2023/04/04 06:24:17;;;;;;;18.30;9.82;;;;;;;1.41;100.00;101437.16;5019011;28;20087;-77
2023/04/04 06:26:43;;;;;;;19.85;11.65;;;;;;;1.53;100.00;101431.88;5006651;28;20036;-78
2023/04/04 06:29:09;;;;;;;29.65;15.65;;;;;;;1.64;100.00;101438.59;5035728;28;20087;-77
2023/04/04 06:31:34;;;;;;;20.30;12.38;;;;;;;1.73;100.00;101435.44;5018592;28;20033;-78
2023/04/04 06:34:00;;;;;;;21.75;12.80;;;;;;;1.87;100.00;101439.00;5023047;28;20034;-77
2023/04/04 06:36:26;;;;;;;24.63;12.48;;;;;;;2.00;100.00;101438.97;5065960;28;20056;-77
2023/04/04 06:38:51;;;;;;;21.75;12.35;;;;;;;2.16;100.00;101432.19;5019416;28;20037;-78
2023/04/04 06:41:17;;;;;;;23.25;12.45;;;;;;;2.32;100.00;101435.50;5043516;28;20036;-78
2023/04/04 06:43:45;;;;;;;23.88;13.95;;;;;;;2.49;100.00;101433.13;5052060;28;20021;-78
2023/04/04 06:46:11;;;;;;;24.55;13.27;;;;;;;2.63;100.00;101432.81;5017132;28;20145;-78
2023/04/04 06:48:36;;;;;;;23.73;13.27;;;;;;;2.80;100.00;101438.63;5018533;28;20045;-77
2023/04/04 06:51:07;;;;;;;21.95;13.10;;;;;;;2.98;100.00;101445.28;5034687;28;20030;-79
2023/04/04 06:53:33;;;;;;;22.77;13.75;;;;;;;3.17;100.00;101444.31;4989421;28;20519;-78
2023/04/04 06:55:59;;;;;;;18.08;11.77;;;;;;;3.32;100.00;101447.59;5034311;28;20037;-78
2023/04/04 06:58:24;;;;;;;21.02;11.88;;;;;;;3.49;100.00;101455.28;4982781;28;20482;-78
2023/04/04 07:00:50;;;;;;;19.88;12.50;;;;;;;3.65;100.00;101451.09;5011100;28;20026;-78
2023/04/04 07:03:15;;;;;;;22.35;13.20;;;;;;;3.83;100.00;101450.31;5022766;28;20033;-78
2023/04/04 07:05:41;;;;;;;18.83;12.38;;;;;;;3.97;100.00;101444.44;5022526;28;20030;-78
2023/04/04 07:08:07;;;;;;;19.15;12.20;;;;;;;4.15;100.00;101451.88;5001442;28;20436;-78
2023/04/04 07:10:32;;;;;;;23.05;12.43;;;;;;;4.34;100.00;101446.38;5018321;28;20037;-78
2023/04/04 07:12:58;;;;;;;26.95;13.10;;;;;;;4.48;100.00;101443.25;5015432;28;20459;-78
2023/04/04 07:15:24;;;;;;;24.90;14.15;;;;;;;4.63;100.00;101445.59;5017715;28;20033;-78
2023/04/04 07:17:49;;;;;;;24.45;12.52;;;;;;;4.83;100.00;101434.31;5051604;28;20029;-78
2023/04/04 07:20:15;;;;;;;19.60;11.75;;;;;;;4.97;100.00;101436.88;5002159;28;20033;-78
2023/04/04 07:22:41;;;;;;;21.20;13.50;;;;;;;5.11;100.00;101438.34;5014254;28;20041;-78
2023/04/04 07:25:08;;;;;;;19.77;12.52;;;;;;;5.26;100.00;101435.16;5047491;28;20026;-78
2023/04/04 07:27:34;;;;;;;25.23;12.90;;;;;;;5.42;100.00;101431.69;5002899;28;20052;-78
2023/04/04 07:30:00;;;;;;;20.67;12.18;;;;;;;5.56;100.00;101435.06;5036682;28;20034;-78
2023/04/04 07:32:25;;;;;;;20.80;12.57;;;;;;;5.68;100.00;101432.31;5043719;28;20535;-79
2023/04/04 07:34:51;;;;;;;25.42;13.05;;;;;;;5.77;100.00;101428.16;5012580;28;20502;-78
2023/04/04 07:37:17;;;;;;;19.45;12.52;;;;;;;5.95;100.00;101427.22;5030740;28;20038;-77
2023/04/04 07:39:43;;;;;;;22.50;12.30;;;;;;;6.10;100.00;101421.19;5046294;28;20041;-78
2023/04/04 07:42:08;;;;;;;18.42;12.40;;;;;;;6.22;100.00;101419.25;5001870;28;20052;-78
2023/04/04 07:44:34;;;;;;;18.20;11.10;;;;;;;6.40;100.00;101419.06;5034441;28;20021;-78
2023/04/04 07:47:00;;;;;;;15.65;10.38;;;;;;;6.55;100.00;101414.97;5023794;28;20479;-78
2023/04/04 07:49:26;;;;;;;16.65;11.13;;;;;;;6.71;100.00;101417.81;5029015;28;20049;-78
2023/04/04 07:51:51;;;;;;;14.25;9.43;;;;;;;6.88;100.00;101417.84;5020689;28;20041;-78
2023/04/04 07:54:17;;;;;;;20.30;10.77;;;;;;;6.98;100.00;101419.94;5035638;28;20021;-78
2023/04/04 07:56:42;;;;;;;16.40;9.93;;;;;;;7.08;100.00;101416.53;4981971;28;20398;-78
2023/04/04 07:59:08;;;;;;;14.82;10.65;;;;;;;7.23;100.00;101427.84;5027081;28;20037;-79
2023/04/04 08:01:33;;;;;;;16.45;9.57;;;;;;;7.37;100.00;101428.38;5034159;28;20056;-78
2023/04/04 08:03:59;;;;;;;15.80;10.20;;;;;;;7.52;100.00;101428.63;5016964;28;20041;-78
2023/04/04 08:06:24;;;;;;;18.52;10.02;;;;;;;7.56;100.00;101428.97;5017673;28;20826;-78
2023/04/04 08:08:51;;;;;;;16.65;9.85;;;;;;;7.68;100.00;101432.47;5032154;28;20037;-78
2023/04/04 08:11:17;;;;;;;15.13;9.40;;;;;;;7.79;100.00;101434.31;5034076;28;20037;-79
2023/04/04 08:13:42;;;;;;;15.13;8.85;;;;;;;7.96;100.00;101430.69;5016202;28;20470;-78
2023/04/04 08:16:08;;;;;;;13.80;8.48;;;;;;;8.12;100.00;101429.81;5035800;28;20029;-78
2023/04/04 08:18:33;;;;;;;13.93;8.65;;;;;;;8.25;100.00;101429.44;5009950;28;20029;-79
2023/04/04 08:20:59;;;;;;;10.25;7.35;;;;;;;8.40;100.00;101419.69;5014185;28;20486;-79
2023/04/04 08:23:24;;;;;;;9.98;7.72;;;;;;;8.54;100.00;101426.50;5027075;28;20526;-78
2023/04/04 08:25:50;;;;;;;14.07;8.02;;;;;;;8.65;100.00;101433.84;5033968;28;20022;-78
2023/04/04 08:28:16;;;;;;;12.65;7.35;;;;;;;8.82;100.00;101438.47;5017149;28;20040;-79
2023/04/04 08:30:41;;;;;;;10.45;6.32;;;;;;;8.97;100.00;101429.47;5017413;28;20156;-78
2023/04/04 08:33:07;;;;;;;11.90;5.35;;;;;;;9.08;94.26;101436.81;5004508;28;20030;-79
2023/04/04 08:35:33;;;;;;;8.88;5.32;;;;;;;9.21;98.05;101439.16;5016145;28;20057;-79
2023/04/04 08:38:01;;;;;;;7.93;4.07;;;;;;;9.40;100.00;101440.44;5017026;28;20025;-79
2023/04/04 08:40:29;;;;;;;6.32;4.25;;;;;;;9.56;98.28;101438.66;5016856;28;20039;-78
2023/04/04 08:42:54;;;;;;;6.70;4.32;;;;;;;9.74;97.33;101439.34;5021558;28;20104;-79
2023/04/04 08:45:20;;;;;;;8.13;3.90;;;;;;;9.90;94.69;101449.44;5014422;28;20041;-78
2023/04/04 08:47:47;;;;;;;9.98;4.60;;;;;;;10.00;87.53;101443.97;5027565;28;20033;-79
2023/04/04 08:50:12;;;;;;;7.05;3.58;;;;;;;10.18;81.38;101455.75;5014059;28;20049;-78
2023/04/04 08:52:38;;;;;;;5.30;3.35;;;;;;;10.34;75.24;101443.66;5040433;28;20033;-78
2023/04/04 08:55:04;;;;;;;7.32;4.07;;;;;;;10.43;72.07;101447.56;5028756;28;20037;-79
2023/04/04 08:57:30;;;;;;;9.77;3.88;;;;;;;10.47;73.48;101445.94;5015197;28;20056;-78
2023/04/04 08:59:56;;;;;;;8.25;4.03;;;;;;;10.56;73.10;101442.63;5033203;28;20112;-79
2023/04/04 09:02:28;;;;;;;7.80;3.72;;;;;;;10.70;76.85;101447.41;5050198;28;20056;-79
2023/04/04 09:04:53;;;;;;;6.28;3.35;;;;;;;10.80;75.54;101446.59;5035182;28;20063;-78
2023/04/04 09:07:19;;;;;;;6.63;4.28;;;;;;;10.82;73.57;101441.63;5003660;28;20030;-78
2023/04/04 09:09:45;;;;;;;8.85;4.20;;;;;;;10.86;72.43;101448.28;5029665;28;20153;-78
2023/04/04 09:12:15;;;;;;;8.63;3.97;;;;;;;10.87;70.60;101449.16;5048931;28;20057;-78
2023/04/04 09:14:41;;;;;;;6.85;3.42;;;;;;;11.05;69.81;101431.09;5034082;28;20033;-78
2023/04/04 09:17:09;;;;;;;5.35;3.40;;;;;;;11.22;71.31;101436.41;5050075;28;20029;-78
2023/04/04 09:19:36;;;;;;;8.15;3.95;;;;;;;11.33;69.51;101438.94;5002256;28;20029;-79
2023/04/04 09:22:06;;;;;;;6.97;3.80;;;;;;;11.37;67.54;101445.63;5034366;28;20199;-78
2023/04/04 09:24:39;;;;;;;8.27;3.90;;;;;;;11.27;67.47;101440.03;4985181;28;20068;-78
2023/04/04 09:27:06;;;;;;;9.25;4.43;;;;;;;11.26;65.12;101441.16;5032360;28;20029;-79
2023/04/04 09:29:32;;;;;;;5.22;3.45;;;;;;;11.24;65.35;101440.59;5033775;28;20394;-78
2023/04/04 09:31:57;;;;;;;6.32;3.47;;;;;;;11.20;63.08;101439.50;5035858;28;20029;-78
2023/04/04 09:34:23;;;;;;;9.25;3.78;;;;;;;11.33;65.19;101440.88;5002289;28;20017;-78
2023/04/04 09:36:48;;;;;;;5.68;3.22;;;;;;;11.22;63.17;101445.59;5000941;28;20029;-78
2023/04/04 09:39:16;;;;;;;10.25;3.35;;;;;;;11.24;60.82;101436.97;5020209;28;20029;-78
2023/04/04 09:41:43;;;;;;;6.45;3.15;;;;;;;11.21;59.77;101448.66;5036449;28;20033;-79
2023/04/04 09:44:12;;;;;;;6.22;3.00;;;;;;;11.25;59.40;101447.00;5016855;28;20446;-79
2023/04/04 09:46:38;;;;;;;5.10;2.83;;;;;;;11.13;57.35;101450.03;5017925;28;20041;-78
2023/04/04 09:49:04;;;;;;;6.65;3.25;;;;;;;11.16;57.60;101452.25;5016929;28;20052;-79
2023/04/04 09:51:35;;;;;;;7.47;3.00;;;;;;;11.15;58.22;101450.59;5046956;28;20101;-78
2023/04/04 09:54:00;;;;;;;5.00;3.13;;;;;;;11.14;58.16;101446.13;5032985;28;20065;-78
2023/04/04 09:56:26;;;;;;;8.90;3.05;;;;;;;11.14;57.58;101448.91;5022263;28;20037;-79
2023/04/04 09:58:52;;;;;;;6.10;3.47;;;;;;;11.08;58.18;101452.78;5049226;28;20041;-79
2023/04/04 10:01:17;;;;;;;6.75;3.40;;;;;;;11.07;59.15;101445.56;5020236;28;20156;-78
2023/04/04 10:03:49;;;;;;;6.18;3.47;;;;;;;11.18;59.72;101447.25;5003447;28;20042;-79
2023/04/04 10:06:15;;;;;;;6.30;3.50;;;;;;;11.16;58.80;101450.31;5036135;28;20029;-79
2023/04/04 10:08:41;;;;;;;6.13;3.30;;;;;;;11.38;61.63;101436.16;5052602;28;20026;-78
2023/04/04 10:11:07;;;;;;;5.85;3.13;;;;;;;11.41;57.73;101443.94;5036180;28;20053;-78
2023/04/04 10:13:35;;;;;;;6.35;3.15;;;;;;;11.57;59.23;101438.41;5008279;28;20033;-79
2023/04/04 10:16:02;;;;;;;5.93;3.40;;;;;;;11.65;59.73;101445.38;5000177;28;20026;-79
2023/04/04 10:18:34;;;;;;;9.20;3.72;;;;;;;11.70;58.64;101439.78;5018843;28;20053;-79
2023/04/04 10:21:04;;;;;;;7.27;3.40;;;;;;;11.87;60.64;101443.16;5020289;28;20030;-79
2023/04/04 10:23:30;;;;;;;6.47;4.13;;;;;;;11.89;59.50;101454.00;5021688;28;20089;-79
2023/04/04 10:25:56;;;;;;;6.88;3.97;;;;;;;12.00;59.95;101442.56;5029873;28;20036;-78
2023/04/04 10:28:22;;;;;;;6.20;3.92;;;;;;;12.07;60.67;101437.53;5034750;28;20034;-78
2023/04/04 10:31:18;;;;;;;8.68;3.55;;;;;;;12.17;60.23;101436.66;5028857;28;20028;-78
2023/04/04 10:34:06;;;;;;;9.32;3.88;;;;;;;12.26;58.18;101429.44;5032193;28;20064;-78
2023/04/04 10:36:46;;;;;;;7.60;3.63;;;;;;;12.17;56.24;101428.31;5035500;28;20041;-79
2023/04/04 10:39:22;;;;;;;5.88;3.47;;;;;;;12.22;56.96;101435.84;5033785;28;20037;-78
2023/04/04 10:41:49;;;;;;;6.05;3.50;;;;;;;12.34;58.30;101429.94;5002569;28;20052;-79
2023/04/04 10:44:28;;;;;;;7.13;3.75;;;;;;;12.54;58.58;101418.75;4999502;28;20088;-79
2023/04/04 10:46:54;;;;;;;8.52;3.47;;;;;;;12.64;57.65;101424.25;5026034;28;20048;-79
2023/04/04 10:49:20;;;;;;;6.50;3.50;;;;;;;12.64;56.82;101417.84;4988182;28;20437;-78
2023/04/04 10:51:46;;;;;;;6.10;3.28;;;;;;;12.82;56.71;101419.16;5033106;28;20030;-79
2023/04/04 10:54:12;;;;;;;6.78;3.60;;;;;;;12.89;56.59;101420.50;5046482;28;20542;-78
2023/04/04 10:56:37;;;;;;;8.40;3.58;;;;;;;12.74;55.74;101418.63;5035496;28;20115;-78
2023/04/04 10:59:21;;;;;;;4.95;3.67;;;;;;;12.79;56.99;101414.13;5002585;28;20033;-79
2023/04/04 11:01:56;;;;;;;7.88;3.80;;;;;;;12.70;55.04;101422.28;5015271;28;20034;-78
2023/04/04 11:04:30;;;;;;;7.97;3.70;;;;;;;12.64;55.14;101418.69;5063020;28;20026;-78
2023/04/04 11:07:15;;;;;;;7.00;3.75;;;;;;;12.56;55.71;101419.28;5043943;28;20029;-79
2023/04/04 11:10:24;;;;;;;8.88;3.88;;;;;;;12.65;55.24;101422.31;5031753;28;20030;-78
2023/04/04 11:12:54;;;;;;;6.38;3.50;;;;;;;12.60;54.46;101417.59;5027324;28;20022;-78
2023/04/04 11:15:26;;;;;;;6.72;3.22;;;;;;;12.71;54.54;101410.03;5017109;28;20401;-78
2023/04/04 11:17:58;;;;;;;7.20;3.53;;;;;;;12.61;54.70;101413.69;5015146;28;20034;-79